Observation data for Northwest Lubbock on 04/16/2021      Previous  Date  Next       Current Mesonet Observations  Soil Data  Daily Summary Page  Observations in Plain Language
KLBW 160500Z 12008KT 09/09 A2988 RMK A01 T00890085  RH  100%=      5-min Rain = 0
KLBW 160505Z 12007G14KT 09/09 A2988 RMK A01 T00890085  RH  100%=      5-min Rain = 0
KLBW 160510Z 12008KT 09/09 A2988 RMK A01 T00890085  RH  100%=      5-min Rain = 0
KLBW 160515Z 12008G13KT 09/09 A2988 RMK A01 T00890085  RH  100%=      5-min Rain = 0
KLBW 160520Z 12008G13KT 09/09 A2988 RMK A01 T00890085  RH  100%=      5-min Rain = 0
KLBW 160525Z 12009KT 09/09 A2988 RMK A01 T00890085  RH  100%=      5-min Rain = 0
KLBW 160530Z 11008KT 09/09 A2989 RMK A01 T00890085  RH  100%=      5-min Rain = 0
KLBW 160535Z 12006G11KT 09/09 A2989 RMK A01 T00900085  RH  100%=      5-min Rain = 0
KLBW 160540Z 13008KT 09/09 A2988 RMK A01 T00890085  RH  100%=      5-min Rain = 0
KLBW 160545Z 13008KT 09/09 A2988 RMK A01 T00890085  RH  100%=      5-min Rain = 0
KLBW 160550Z 13007KT 09/09 A2988 RMK A01 T00890085  RH  100%=      5-min Rain = 0
KLBW 160555Z 13008KT 09/09 A2988 RMK A01 T00890085  RH  100%=      5-min Rain = 0.01
KLBW 160600Z 13007KT 09/09 A2988 RMK A01 T00890085  RH  100%=      5-min Rain = 0
KLBW 160605Z 13007KT 09/09 A2988 RMK A01 T00900086  RH  100%=      5-min Rain = 0
KLBW 160610Z 12008KT 09/09 A2988 RMK A01 T00900086  RH  100%=      5-min Rain = 0
KLBW 160615Z 12008KT 09/09 A2988 RMK A01 T00900086  RH  100%=      5-min Rain = 0
KLBW 160620Z 13007KT 09/09 A2988 RMK A01 T00900086  RH  100%=      5-min Rain = 0
KLBW 160625Z 12008KT 09/09 A2987 RMK A01 T00900086  RH  100%=      5-min Rain = 0
KLBW 160630Z 12008G13KT 09/09 A2987 RMK A01 T00900086  RH  100%=      5-min Rain = 0
KLBW 160635Z 12010KT 09/09 A2987 RMK A01 T00900086  RH  100%=      5-min Rain = 0
KLBW 160640Z 12009KT 09/09 A2987 RMK A01 T00900086  RH  100%=      5-min Rain = 0
KLBW 160645Z 12008KT 09/09 A2986 RMK A01 T00900086  RH  100%=      5-min Rain = 0
KLBW 160650Z 12010KT 09/09 A2986 RMK A01 T00900086  RH  100%=      5-min Rain = 0
KLBW 160655Z 13009KT 09/09 A2986 RMK A01 T00900086  RH  100%=      5-min Rain = 0
KLBW 160700Z 13009KT 09/09 A2986 RMK A01 T00900085  RH  100%=      5-min Rain = 0
KLBW 160705Z 12008KT 09/09 A2986 RMK A01 T00890085  RH  100%=      5-min Rain = 0
KLBW 160710Z 13007KT 09/09 A2986 RMK A01 T00890085  RH  100%=      5-min Rain = 0
KLBW 160715Z 13007KT 09/09 A2985 RMK A01 T00900086  RH  100%=      5-min Rain = 0
KLBW 160720Z 13008KT 09/09 A2985 RMK A01 T00900086  RH  100%=      5-min Rain = 0
KLBW 160725Z 14009KT 09/09 A2985 RMK A01 T00890085  RH  100%=      5-min Rain = 0
KLBW 160730Z 14008KT 09/09 A2984 RMK A01 T00890085  RH  100%=      5-min Rain = 0
KLBW 160735Z 14009KT 09/09 A2984 RMK A01 T00890085  RH  100%=      5-min Rain = 0
KLBW 160740Z 15007KT 09/09 A2984 RMK A01 T00900086  RH  100%=      5-min Rain = 0
KLBW 160745Z 16009KT 09/09 A2984 RMK A01 T00900086  RH  100%=      5-min Rain = 0
KLBW 160750Z 15008KT 09/09 A2984 RMK A01 T00900086  RH  100%=      5-min Rain = 0
KLBW 160755Z 15008KT 09/09 A2984 RMK A01 T00900086  RH  100%=      5-min Rain = 0
KLBW 160800Z 15007KT 09/09 A2984 RMK A01 T00910086  RH  100%=      5-min Rain = 0
KLBW 160805Z 15007KT 09/09 A2983 RMK A01 T00910087  RH  100%=      5-min Rain = 0
KLBW 160810Z 15006KT 09/09 A2984 RMK A01 T00910087  RH  100%=      5-min Rain = 0
KLBW 160815Z 16004KT 09/09 A2985 RMK A01 T00910087  RH  100%=      5-min Rain = 0
KLBW 160820Z 34006G11KT 09/09 A2988 RMK A01 T00910087  RH  100%=      5-min Rain = 0
KLBW 160825Z 35007KT 09/09 A2988 RMK A01 T00920088  RH  100%=      5-min Rain = 0
KLBW 160830Z 35004KT 09/09 A2987 RMK A01 T00920088  RH  100%=      5-min Rain = 0
KLBW 160835Z 35007KT 09/09 A2988 RMK A01 T00920088  RH  100%=      5-min Rain = 0
KLBW 160840Z 35004KT 09/09 A2988 RMK A01 T00920088  RH  100%=      5-min Rain = 0
KLBW 160845Z 35006KT 09/09 A2988 RMK A01 T00920088  RH  100%=      5-min Rain = 0.01
KLBW 160850Z 36006KT 09/09 A2988 RMK A01 T00920088  RH  100%=      5-min Rain = 0
KLBW 160855Z 02004KT 09/09 A2988 RMK A01 T00920088  RH  100%=      5-min Rain = 0
KLBW 160900Z 01004KT 09/09 A2987 RMK A01 T00920088  RH  100%=      5-min Rain = 0
KLBW 160905Z 01003KT 09/09 A2987 RMK A01 T00920087  RH  100%=      5-min Rain = 0
KLBW 160910Z 02003KT 09/09 A2987 RMK A01 T00920088  RH  100%=      5-min Rain = 0
KLBW 160915Z 04003KT 09/09 A2987 RMK A01 T00920087  RH  100%=      5-min Rain = 0
KLBW 160920Z 02003KT 09/09 A2987 RMK A01 T00920088  RH  100%=      5-min Rain = 0.01
KLBW 160925Z 01004KT 09/09 A2987 RMK A01 T00920088  RH  100%=      5-min Rain = 0
KLBW 160930Z 00006KT 09/09 A2988 RMK A01 T00930088  RH  100%=      5-min Rain = 0
KLBW 160935Z 01005KT 09/09 A2988 RMK A01 T00930088  RH  100%=      5-min Rain = 0
KLBW 160940Z 01008KT 09/09 A2988 RMK A01 T00920087  RH  100%=      5-min Rain = 0
KLBW 160945Z 02008KT 09/09 A2988 RMK A01 T00900086  RH  100%=      5-min Rain = 0
KLBW 160950Z 02008KT 09/09 A2988 RMK A01 T00890085  RH  100%=      5-min Rain = 0
KLBW 160955Z 01008KT 09/09 A2988 RMK A01 T00890085  RH  100%=      5-min Rain = 0
KLBW 161000Z 02008KT 09/08 A2988 RMK A01 T00890084  RH  100%=      5-min Rain = 0
KLBW 161005Z 01007KT 09/08 A2989 RMK A01 T00890084  RH  100%=      5-min Rain = 0
KLBW 161010Z 01006KT 09/09 A2989 RMK A01 T00890085  RH  100%=      5-min Rain = 0
KLBW 161015Z 01008G13KT 09/09 A2989 RMK A01 T00890085  RH  100%=      5-min Rain = 0
KLBW 161020Z 01010KT 09/08 A2989 RMK A01 T00870083  RH  100%=      5-min Rain = 0
KLBW 161025Z 01008G13KT 09/08 A2988 RMK A01 T00850081  RH  100%=      5-min Rain = 0
KLBW 161030Z 01007KT 09/08 A2988 RMK A01 T00850081  RH  100%=      5-min Rain = 0
KLBW 161035Z 02006KT 09/08 A2988 RMK A01 T00850081  RH  100%=      5-min Rain = 0
KLBW 161040Z 01007KT 08/08 A2988 RMK A01 T00840080  RH  100%=      5-min Rain = 0
KLBW 161045Z 01007KT 09/08 A2989 RMK A01 T00850081  RH  100%=      5-min Rain = 0
KLBW 161050Z 02006KT 09/08 A2988 RMK A01 T00850081  RH  100%=      5-min Rain = 0
KLBW 161055Z 03006KT 09/08 A2988 RMK A01 T00850081  RH  100%=      5-min Rain = 0
KLBW 161100Z 02005KT 09/08 A2988 RMK A01 T00850081  RH  100%=      5-min Rain = 0
KLBW 161105Z 03005KT 08/08 A2988 RMK A01 T00840080  RH  100%=      5-min Rain = 0
KLBW 161110Z 03006KT 08/08 A2988 RMK A01 T00840080  RH  100%=      5-min Rain = 0
KLBW 161115Z 03006KT 08/08 A2988 RMK A01 T00840080  RH  100%=      5-min Rain = 0
KLBW 161120Z 02007KT 08/08 A2988 RMK A01 T00840079  RH  100%=      5-min Rain = 0
KLBW 161125Z 02007KT 08/08 A2988 RMK A01 T00830079  RH  100%=      5-min Rain = 0
KLBW 161130Z 04006KT 08/08 A2988 RMK A01 T00820078  RH  100%=      5-min Rain = 0
KLBW 161135Z 04005KT 08/08 A2988 RMK A01 T00810077  RH  100%=      5-min Rain = 0
KLBW 161140Z 02008KT 08/08 A2988 RMK A01 T00800076  RH  100%=      5-min Rain = 0
KLBW 161145Z 02006KT 08/08 A2988 RMK A01 T00800076  RH  100%=      5-min Rain = 0
KLBW 161150Z 03007KT 08/08 A2988 RMK A01 T00790075  RH  100%=      5-min Rain = 0
KLBW 161155Z 02007KT 08/08 A2988 RMK A01 T00790075  RH  100%=      5-min Rain = 0
KLBW 161200Z 02006KT 08/07 A2988 RMK A01 T00790074  RH  100%=      5-min Rain = 0
KLBW 161205Z 03007KT 08/07 A2988 RMK A01 T00770073  RH  100%=      5-min Rain = 0
KLBW 161210Z 02006KT 08/07 A2988 RMK A01 T00760072  RH  100%=      5-min Rain = 0
KLBW 161215Z 02006KT 08/07 A2988 RMK A01 T00770073  RH  100%=      5-min Rain = 0
KLBW 161220Z 03004KT 08/07 A2989 RMK A01 T00770073  RH  100%=      5-min Rain = 0
KLBW 161225Z 04004KT 08/07 A2989 RMK A01 T00760072  RH  100%=      5-min Rain = 0
KLBW 161230Z 05005KT 08/07 A2989 RMK A01 T00760071  RH  100%=      5-min Rain = 0
KLBW 161235Z 04005KT 08/07 A2989 RMK A01 T00750071  RH  100%=      5-min Rain = 0
KLBW 161240Z 03004KT 07/07 A2989 RMK A01 T00740070  RH  100%=      5-min Rain = 0
KLBW 161245Z 03003KT 08/07 A2989 RMK A01 T00750071  RH  100%=      5-min Rain = 0
KLBW 161250Z 02004KT 07/07 A299 RMK A01 T00740070  RH  099%=      5-min Rain = 0
KLBW 161255Z 01003KT 07/07 A299 RMK A01 T00740070  RH  099%=      5-min Rain = 0
KLBW 161300Z 01004KT 07/07 A299 RMK A01 T00740070  RH  100%=      5-min Rain = 0
KLBW 161305Z 02004KT 08/07 A299 RMK A01 T00750071  RH  100%=      5-min Rain = 0
KLBW 161310Z 03005KT 08/07 A299 RMK A01 T00760072  RH  100%=      5-min Rain = 0
KLBW 161315Z 01004KT 08/07 A2991 RMK A01 T00750071  RH  100%=      5-min Rain = 0
KLBW 161320Z 03005KT 08/07 A2991 RMK A01 T00750071  RH  100%=      5-min Rain = 0
KLBW 161325Z 03005KT 08/07 A2991 RMK A01 T00750070  RH  100%=      5-min Rain = 0
KLBW 161330Z 02003KT 08/07 A2991 RMK A01 T00750071  RH  100%=      5-min Rain = 0
KLBW 161335Z 01005KT 08/07 A2991 RMK A01 T00750071  RH  100%=      5-min Rain = 0
KLBW 161340Z 03005KT 08/07 A2991 RMK A01 T00750070  RH  100%=      5-min Rain = 0
KLBW 161345Z 01004KT 07/07 A2992 RMK A01 T00740069  RH  100%=      5-min Rain = 0
KLBW 161350Z 01003KT 07/07 A2992 RMK A01 T00730069  RH  099%=      5-min Rain = 0
KLBW 161355Z 06002KT 07/07 A2991 RMK A01 T00740069  RH  099%=      5-min Rain = 0
KLBW 161400Z 03003KT 08/07 A2991 RMK A01 T00750070  RH  099%=      5-min Rain = 0
KLBW 161405Z 03003KT 08/07 A2992 RMK A01 T00750070  RH  099%=      5-min Rain = 0
KLBW 161410Z 02003KT 08/07 A2992 RMK A01 T00750070  RH  099%=      5-min Rain = 0
KLBW 161415Z 02004KT 08/07 A2992 RMK A01 T00750070  RH  099%=      5-min Rain = 0
KLBW 161420Z 00003KT 08/07 A2992 RMK A01 T00750069  RH  099%=      5-min Rain = 0
KLBW 161425Z 33004KT 08/07 A2993 RMK A01 T00760071  RH  099%=      5-min Rain = 0
KLBW 161430Z 34003KT 08/07 A2993 RMK A01 T00760071  RH  099%=      5-min Rain = 0
KLBW 161435Z 34004KT 08/07 A2993 RMK A01 T00770072  RH  100%=      5-min Rain = 0
KLBW 161440Z 33005KT 08/07 A2993 RMK A01 T00780074  RH  100%=      5-min Rain = 0
KLBW 161445Z 34007G12KT 08/07 A2994 RMK A01 T00780074  RH  100%=      5-min Rain = 0
KLBW 161450Z 33009KT 08/07 A2994 RMK A01 T00780074  RH  100%=      5-min Rain = 0
KLBW 161455Z 35007G12KT 08/07 A2994 RMK A01 T00780074  RH  100%=      5-min Rain = 0
KLBW 161500Z 35009G14KT 08/07 A2995 RMK A01 T00780074  RH  100%=      5-min Rain = 0
KLBW 161505Z 35010KT 08/07 A2995 RMK A01 T00760072  RH  100%=      5-min Rain = 0
KLBW 161510Z 36011KT 07/07 A2995 RMK A01 T00730070  RH  100%=      5-min Rain = 0
KLBW 161515Z 00009KT 08/07 A2995 RMK A01 T00750071  RH  100%=      5-min Rain = 0
KLBW 161520Z 35008KT 08/07 A2995 RMK A01 T00760072  RH  100%=      5-min Rain = 0
KLBW 161525Z 36009G15KT 08/07 A2995 RMK A01 T00760072  RH  100%=      5-min Rain = 0
KLBW 161530Z 36011KT 08/07 A2995 RMK A01 T00760072  RH  100%=      5-min Rain = 0
KLBW 161535Z 36011KT 08/07 A2995 RMK A01 T00760072  RH  100%=      5-min Rain = 0
KLBW 161540Z 00011KT 08/07 A2995 RMK A01 T00760071  RH  100%=      5-min Rain = 0
KLBW 161545Z 36011KT 08/07 A2995 RMK A01 T00760072  RH  099%=      5-min Rain = 0
KLBW 161550Z 00011KT 08/07 A2995 RMK A01 T00770071  RH  099%=      5-min Rain = 0
KLBW 161555Z 00010G15KT 08/07 A2995 RMK A01 T00780071  RH  098%=      5-min Rain = 0
KLBW 161600Z 36011KT 08/07 A2995 RMK A01 T00810072  RH  096%=      5-min Rain = 0
KLBW 161605Z 35007KT 09/08 A2995 RMK A01 T00860075  RH  096%=      5-min Rain = 0
KLBW 161610Z 35008G14KT 09/08 A2995 RMK A01 T00880075  RH  094%=      5-min Rain = 0
KLBW 161615Z 34009KT 09/08 A2995 RMK A01 T00910076  RH  093%=      5-min Rain = 0
KLBW 161620Z 34008KT 10/08 A2995 RMK A01 T00950080  RH  093%=      5-min Rain = 0
KLBW 161625Z 35009KT 10/08 A2995 RMK A01 T00980079  RH  090%=      5-min Rain = 0
KLBW 161630Z 34009KT 10/08 A2995 RMK A01 T01010080  RH  089%=      5-min Rain = 0
KLBW 161635Z 34007KT 11/09 A2995 RMK A01 T01070086  RH  089%=      5-min Rain = 0
KLBW 161640Z 35009G14KT 11/08 A2995 RMK A01 T01090083  RH  086%=      5-min Rain = 0
KLBW 161645Z 34008KT 11/09 A2995 RMK A01 T01140087  RH  086%=      5-min Rain = 0
KLBW 161650Z 35009KT 12/09 A2995 RMK A01 T01170086  RH  084%=      5-min Rain = 0
KLBW 161655Z 34010KT 12/09 A2995 RMK A01 T01190088  RH  084%=      5-min Rain = 0
KLBW 161700Z 34010G16KT 12/09 A2995 RMK A01 T01230088  RH  081%=      5-min Rain = 0
KLBW 161705Z 35010KT 13/09 A2995 RMK A01 T01260089  RH  081%=      5-min Rain = 0
KLBW 161710Z 34012G18KT 13/09 A2995 RMK A01 T01290089  RH  079%=      5-min Rain = 0
KLBW 161715Z 35015KT 13/09 A2995 RMK A01 T01280085  RH  077%=      5-min Rain = 0
KLBW 161720Z 35013G18KT 13/09 A2995 RMK A01 T01280087  RH  078%=      5-min Rain = 0
KLBW 161725Z 35015KT 13/09 A2995 RMK A01 T01290085  RH  077%=      5-min Rain = 0
KLBW 161730Z 35013G19KT 13/09 A2995 RMK A01 T01270085  RH  078%=      5-min Rain = 0
KLBW 161735Z 00014G19KT 13/08 A2995 RMK A01 T01250082  RH  077%=      5-min Rain = 0
KLBW 161740Z 00016G22KT 12/08 A2996 RMK A01 T01230081  RH  078%=      5-min Rain = 0
KLBW 161745Z 00014G21KT 12/08 A2996 RMK A01 T01220081  RH  079%=      5-min Rain = 0
KLBW 161750Z 35016KT 12/08 A2996 RMK A01 T01220080  RH  078%=      5-min Rain = 0
KLBW 161755Z 35016G21KT 12/08 A2996 RMK A01 T01200078  RH  078%=      5-min Rain = 0
KLBW 161800Z 36017G22KT 12/08 A2996 RMK A01 T01200076  RH  077%=      5-min Rain = 0
KLBW 161805Z 36018G26KT 12/08 A2996 RMK A01 T01200077  RH  077%=      5-min Rain = 0
KLBW 161810Z 35018G26KT 11/08 A2997 RMK A01 T01090075  RH  081%=      5-min Rain = 0
KLBW 161815Z 35013G19KT 11/07 A2997 RMK A01 T01060073  RH  082%=      5-min Rain = 0
KLBW 161820Z 35013G18KT 11/07 A2997 RMK A01 T01100071  RH  079%=      5-min Rain = 0
KLBW 161825Z 36013G18KT 12/07 A2996 RMK A01 T01160072  RH  076%=      5-min Rain = 0
KLBW 161830Z 36016G22KT 11/07 A2997 RMK A01 T01120070  RH  077%=      5-min Rain = 0
KLBW 161835Z 00015G21KT 11/07 A2997 RMK A01 T01110068  RH  077%=      5-min Rain = 0
KLBW 161840Z 36013G20KT 11/07 A2997 RMK A01 T01130065  RH  074%=      5-min Rain = 0
KLBW 161845Z 00013KT 12/06 A2997 RMK A01 T01180064  RH  071%=      5-min Rain = 0
KLBW 161850Z 01012G19KT 12/07 A2997 RMK A01 T01170066  RH  072%=      5-min Rain = 0
KLBW 161855Z 00011G17KT 12/07 A2997 RMK A01 T01200068  RH  072%=      5-min Rain = 0
KLBW 161900Z 01014G19KT 12/07 A2997 RMK A01 T01210066  RH  071%=      5-min Rain = 0
KLBW 161905Z 00014G20KT 12/06 A2997 RMK A01 T01230062  RH  068%=      5-min Rain = 0
KLBW 161910Z 00014KT 13/06 A2997 RMK A01 T01260058  RH  065%=      5-min Rain = 0
KLBW 161915Z 00014G19KT 13/06 A2997 RMK A01 T01300063  RH  066%=      5-min Rain = 0
KLBW 161920Z 00015G22KT 13/06 A2997 RMK A01 T01270061  RH  066%=      5-min Rain = 0
KLBW 161925Z 01016G21KT 13/06 A2997 RMK A01 T01250061  RH  066%=      5-min Rain = 0
KLBW 161930Z 01015G21KT 13/06 A2997 RMK A01 T01290061  RH  065%=      5-min Rain = 0
KLBW 161935Z 01012G17KT 13/06 A2997 RMK A01 T01330060  RH  063%=      5-min Rain = 0
KLBW 161940Z 01013G19KT 14/06 A2996 RMK A01 T01390060  RH  060%=      5-min Rain = 0
KLBW 161945Z 01015G21KT 14/06 A2996 RMK A01 T01360057  RH  060%=      5-min Rain = 0
KLBW 161950Z 01013G19KT 14/06 A2996 RMK A01 T01360058  RH  061%=      5-min Rain = 0
KLBW 161955Z 01015G20KT 13/06 A2996 RMK A01 T01340058  RH  061%=      5-min Rain = 0
KLBW 162000Z 01015KT 14/06 A2996 RMK A01 T01370059  RH  060%=      5-min Rain = 0
KLBW 162005Z 02015G20KT 14/06 A2996 RMK A01 T01390057  RH  059%=      5-min Rain = 0
KLBW 162010Z 01014G20KT 14/05 A2996 RMK A01 T01390053  RH  057%=      5-min Rain = 0
KLBW 162015Z 01014G19KT 14/05 A2996 RMK A01 T01420054  RH  057%=      5-min Rain = 0
KLBW 162020Z 02013G20KT 14/05 A2996 RMK A01 T01440052  RH  055%=      5-min Rain = 0
KLBW 162025Z 01014G19KT 14/05 A2996 RMK A01 T01440050  RH  054%=      5-min Rain = 0
KLBW 162030Z 01013G19KT 15/05 A2996 RMK A01 T01450048  RH  053%=      5-min Rain = 0
KLBW 162035Z 01014G23KT 15/05 A2996 RMK A01 T01460047  RH  052%=      5-min Rain = 0
KLBW 162040Z 00014G20KT 15/05 A2996 RMK A01 T01500047  RH  051%=      5-min Rain = 0
KLBW 162045Z 01014G19KT 15/05 A2996 RMK A01 T01480045  RH  051%=      5-min Rain = 0
KLBW 162050Z 01014G22KT 15/05 A2996 RMK A01 T01500048  RH  052%=      5-min Rain = 0
KLBW 162055Z 02013G19KT 15/05 A2996 RMK A01 T01510048  RH  051%=      5-min Rain = 0
KLBW 162100Z 00013G23KT 15/05 A2996 RMK A01 T01500047  RH  051%=      5-min Rain = 0
KLBW 162105Z 36015G22KT 15/04 A2996 RMK A01 T01490044  RH  050%=      5-min Rain = 0
KLBW 162110Z 01014G19KT 15/04 A2996 RMK A01 T01480044  RH  050%=      5-min Rain = 0
KLBW 162115Z 01014G19KT 14/04 A2996 RMK A01 T01430042  RH  052%=      5-min Rain = 0
KLBW 162120Z 02012G18KT 15/04 A2996 RMK A01 T01450043  RH  051%=      5-min Rain = 0
KLBW 162125Z 02014G20KT 15/05 A2996 RMK A01 T01470046  RH  052%=      5-min Rain = 0
KLBW 162130Z 01013G22KT 15/04 A2996 RMK A01 T01450043  RH  051%=      5-min Rain = 0
KLBW 162135Z 00014G20KT 15/04 A2996 RMK A01 T01460044  RH  051%=      5-min Rain = 0
KLBW 162140Z 02013G18KT 15/04 A2996 RMK A01 T01460041  RH  051%=      5-min Rain = 0
KLBW 162145Z 02013G22KT 15/04 A2996 RMK A01 T01450041  RH  051%=      5-min Rain = 0
KLBW 162150Z 01014G22KT 14/04 A2996 RMK A01 T01380041  RH  053%=      5-min Rain = 0
KLBW 162155Z 02014G20KT 14/04 A2996 RMK A01 T01400042  RH  053%=      5-min Rain = 0
KLBW 162200Z 02012G18KT 14/04 A2996 RMK A01 T01400038  RH  051%=      5-min Rain = 0
KLBW 162205Z 01013G23KT 14/04 A2997 RMK A01 T01400038  RH  051%=      5-min Rain = 0
KLBW 162210Z 02013G21KT 14/04 A2997 RMK A01 T01440037  RH  050%=      5-min Rain = 0
KLBW 162215Z 01015G22KT 14/04 A2997 RMK A01 T01390036  RH  051%=      5-min Rain = 0
KLBW 162220Z 00014G20KT 14/04 A2997 RMK A01 T01370036  RH  051%=      5-min Rain = 0
KLBW 162225Z 02014G22KT 14/04 A2997 RMK A01 T01410038  RH  051%=      5-min Rain = 0
KLBW 162230Z 01015G21KT 14/03 A2998 RMK A01 T01390034  RH  050%=      5-min Rain = 0
KLBW 162235Z 02014G19KT 14/03 A2998 RMK A01 T01360032  RH  050%=      5-min Rain = 0
KLBW 162240Z 02015G21KT 14/03 A2998 RMK A01 T01360032  RH  050%=      5-min Rain = 0
KLBW 162245Z 01014G20KT 14/03 A2998 RMK A01 T01390032  RH  049%=      5-min Rain = 0
KLBW 162250Z 01017G23KT 14/03 A2999 RMK A01 T01350029  RH  049%=      5-min Rain = 0
KLBW 162255Z 02015G23KT 13/03 A2999 RMK A01 T01320026  RH  050%=      5-min Rain = 0
KLBW 162300Z 01015G22KT 13/03 A2999 RMK A01 T01320025  RH  049%=      5-min Rain = 0
KLBW 162305Z 02015G21KT 13/03 A2999 RMK A01 T01330029  RH  050%=      5-min Rain = 0
KLBW 162310Z 01017G23KT 13/03 A30 RMK A01 T01310026  RH  050%=      5-min Rain = 0
KLBW 162315Z 03015G24KT 13/03 A30 RMK A01 T01250025  RH  051%=      5-min Rain = 0
KLBW 162320Z 02016G24KT 12/02 A30 RMK A01 T01230022  RH  051%=      5-min Rain = 0
KLBW 162325Z 01014G20KT 12/02 A30 RMK A01 T01220023  RH  052%=      5-min Rain = 0
KLBW 162330Z 02017G23KT 12/02 A30 RMK A01 T01200023  RH  052%=      5-min Rain = 0
KLBW 162335Z 02014G21KT 12/02 A3001 RMK A01 T01180024  RH  054%=      5-min Rain = 0
KLBW 162340Z 02015G22KT 12/02 A3001 RMK A01 T01160024  RH  054%=      5-min Rain = 0
KLBW 162345Z 03013G21KT 11/02 A3001 RMK A01 T01140022  RH  054%=      5-min Rain = 0
KLBW 162350Z 02012G22KT 12/02 A3002 RMK A01 T01150023  RH  054%=      5-min Rain = 0
KLBW 162355Z 02016G24KT 11/02 A3002 RMK A01 T01120021  RH  054%=      5-min Rain = 0
KLBW 170000Z 01015G23KT 11/02 A3002 RMK A01 T01100019  RH  054%=      5-min Rain = 0
KLBW 170005Z 01015G21KT 11/02 A3003 RMK A01 T01070018  RH  055%=      5-min Rain = 0
KLBW 170010Z 02017G22KT 10/02 A3003 RMK A01 T01040017  RH  056%=      5-min Rain = 0
KLBW 170015Z 03015G20KT 10/02 A3003 RMK A01 T01020016  RH  056%=      5-min Rain = 0
KLBW 170020Z 01017G22KT 10/01 A3003 RMK A01 T01000014  RH  056%=      5-min Rain = 0
KLBW 170025Z 02016G22KT 10/02 A3003 RMK A01 T00970018  RH  059%=      5-min Rain = 0
KLBW 170030Z 03015G22KT 09/02 A3003 RMK A01 T00940018  RH  060%=      5-min Rain = 0
KLBW 170035Z 03017G22KT 09/02 A3004 RMK A01 T00910015  RH  060%=      5-min Rain = 0
KLBW 170040Z 03017G23KT 09/01 A3003 RMK A01 T00900013  RH  059%=      5-min Rain = 0
KLBW 170045Z 02014G21KT 09/01 A3004 RMK A01 T00890011  RH  059%=      5-min Rain = 0
KLBW 170050Z 03016KT 09/01 A3004 RMK A01 T00890012  RH  059%=      5-min Rain = 0
KLBW 170055Z 03016G22KT 09/01 A3004 RMK A01 T00890012  RH  059%=      5-min Rain = 0
KLBW 170100Z 03014G23KT 09/01 A3005 RMK A01 T00880013  RH  060%=      5-min Rain = 0
KLBW 170105Z 03014G20KT 09/01 A3006 RMK A01 T00860013  RH  061%=      5-min Rain = 0
KLBW 170110Z 03012G18KT 09/01 A3006 RMK A01 T00860014  RH  062%=      5-min Rain = 0
KLBW 170115Z 02013G19KT 08/01 A3007 RMK A01 T00840013  RH  062%=      5-min Rain = 0
KLBW 170120Z 02015G21KT 08/01 A3007 RMK A01 T00830011  RH  062%=      5-min Rain = 0
KLBW 170125Z 02014G20KT 08/01 A3007 RMK A01 T00820010  RH  062%=      5-min Rain = 0
KLBW 170130Z 02013G18KT 08/01 A3007 RMK A01 T00810010  RH  062%=      5-min Rain = 0
KLBW 170135Z 02014G20KT 08/01 A3007 RMK A01 T00810011  RH  062%=      5-min Rain = 0
KLBW 170140Z 02012G17KT 08/01 A3007 RMK A01 T00800012  RH  063%=      5-min Rain = 0
KLBW 170145Z 02014G21KT 08/01 A3008 RMK A01 T00800012  RH  063%=      5-min Rain = 0
KLBW 170150Z 02013G22KT 08/01 A3008 RMK A01 T00800013  RH  063%=      5-min Rain = 0
KLBW 170155Z 02015G23KT 08/01 A3008 RMK A01 T00790011  RH  063%=      5-min Rain = 0
KLBW 170200Z 02014G19KT 08/01 A3008 RMK A01 T00770011  RH  064%=      5-min Rain = 0
KLBW 170205Z 01013G19KT 08/01 A3009 RMK A01 T00760011  RH  064%=      5-min Rain = 0
KLBW 170210Z 01016G22KT 08/01 A3009 RMK A01 T00750010  RH  064%=      5-min Rain = 0
KLBW 170215Z 01016G23KT 07/01 A301 RMK A01 T00740009  RH  064%=      5-min Rain = 0
KLBW 170220Z 02014G19KT 07/01 A3011 RMK A01 T00740010  RH  065%=      5-min Rain = 0
KLBW 170225Z 03015G20KT 07/01 A3011 RMK A01 T00730010  RH  065%=      5-min Rain = 0
KLBW 170230Z 03014G23KT 07/01 A3011 RMK A01 T00720010  RH  065%=      5-min Rain = 0
KLBW 170235Z 03014G20KT 07/01 A3011 RMK A01 T00720010  RH  066%=      5-min Rain = 0
KLBW 170240Z 02015G23KT 07/01 A3012 RMK A01 T00710008  RH  065%=      5-min Rain = 0
KLBW 170245Z 02011G19KT 07/01 A3013 RMK A01 T00700008  RH  065%=      5-min Rain = 0
KLBW 170250Z 02011G17KT 07/01 A3013 RMK A01 T00700009  RH  066%=      5-min Rain = 0
KLBW 170255Z 02014G21KT 07/01 A3013 RMK A01 T00700010  RH  066%=      5-min Rain = 0
KLBW 170300Z 02012G20KT 07/01 A3013 RMK A01 T00700010  RH  067%=      5-min Rain = 0
KLBW 170305Z 01014G20KT 07/01 A3013 RMK A01 T00690007  RH  066%=      5-min Rain = 0
KLBW 170310Z 02014G21KT 07/01 A3013 RMK A01 T00680006  RH  065%=      5-min Rain = 0
KLBW 170315Z 02014G19KT 07/01 A3013 RMK A01 T00670006  RH  066%=      5-min Rain = 0
KLBW 170320Z 02016G21KT 07/01 A3012 RMK A01 T00660005  RH  066%=      5-min Rain = 0
KLBW 170325Z 02013G20KT 07/01 A3012 RMK A01 T00660005  RH  066%=      5-min Rain = 0
KLBW 170330Z 02013G19KT 07/01 A3013 RMK A01 T00660007  RH  067%=      5-min Rain = 0
KLBW 170335Z 02014KT 07/01 A3013 RMK A01 T00660006  RH  067%=      5-min Rain = 0
KLBW 170340Z 02011KT 07/01 A3013 RMK A01 T00650007  RH  067%=      5-min Rain = 0
KLBW 170345Z 03013KT 07/01 A3013 RMK A01 T00650006  RH  067%=      5-min Rain = 0
KLBW 170350Z 02013G18KT 06/01 A3014 RMK A01 T00640006  RH  067%=      5-min Rain = 0
KLBW 170355Z 02010G16KT 06/01 A3014 RMK A01 T00640006  RH  067%=      5-min Rain = 0
KLBW 170400Z 02009G14KT 06/01 A3014 RMK A01 T00640006  RH  067%=      5-min Rain = 0
KLBW 170405Z 03012G18KT 06/01 A3014 RMK A01 T00640005  RH  067%=      5-min Rain = 0
KLBW 170410Z 02013KT 06/00 A3014 RMK A01 T00630004  RH  067%=      5-min Rain = 0
KLBW 170415Z 02013KT 06/00 A3014 RMK A01 T00630004  RH  066%=      5-min Rain = 0
KLBW 170420Z 02010G15KT 06/00 A3014 RMK A01 T00630004  RH  067%=      5-min Rain = 0
KLBW 170425Z 02010G15KT 06/00 A3014 RMK A01 T00620004  RH  067%=      5-min Rain = 0
KLBW 170430Z 03011G17KT 06/00 A3014 RMK A01 T00620004  RH  067%=      5-min Rain = 0
KLBW 170435Z 03012G17KT 06/00 A3014 RMK A01 T00620004  RH  067%=      5-min Rain = 0
KLBW 170440Z 03012KT 06/00 A3014 RMK A01 T00620004  RH  067%=      5-min Rain = 0
KLBW 170445Z 02012KT 06/01 A3014 RMK A01 T00620005  RH  067%=      5-min Rain = 0
KLBW 170450Z 03011KT 06/00 A3014 RMK A01 T00610004  RH  068%=      5-min Rain = 0
KLBW 170455Z 03011G16KT 06/01 A3014 RMK A01 T00610005  RH  068%=      5-min Rain = 0

Page generated in 0.0084 seconds.